sensor_id;sensor_type;location;lat;lon;timestamp;P1;durP1;ratioP1;P2;durP2;ratioP2
19617;SDS011;9956;51.006;13.670;2023-05-23T00:00:20;6.25;;;5.25;;
19617;SDS011;9956;51.006;13.670;2023-05-23T00:05:21;7.38;;;5.07;;
19617;SDS011;9956;51.006;13.670;2023-05-23T00:10:21;6.85;;;5.57;;
19617;SDS011;9956;51.006;13.670;2023-05-23T00:15:22;6.47;;;5.32;;
19617;SDS011;9956;51.006;13.670;2023-05-23T00:20:23;7.45;;;6.18;;
19617;SDS011;9956;51.006;13.670;2023-05-23T00:25:24;12.57;;;9.65;;
19617;SDS011;9956;51.006;13.670;2023-05-23T00:30:24;17.10;;;11.70;;
19617;SDS011;9956;51.006;13.670;2023-05-23T00:35:25;50.30;;;20.95;;
19617;SDS011;9956;51.006;13.670;2023-05-23T00:40:25;38.45;;;22.00;;
19617;SDS011;9956;51.006;13.670;2023-05-23T00:45:26;25.42;;;18.80;;
19617;SDS011;9956;51.006;13.670;2023-05-23T00:50:26;23.83;;;20.30;;
19617;SDS011;9956;51.006;13.670;2023-05-23T00:55:28;21.98;;;15.93;;
19617;SDS011;9956;51.006;13.670;2023-05-23T01:00:29;24.63;;;19.33;;
19617;SDS011;9956;51.006;13.670;2023-05-23T01:05:29;41.88;;;24.65;;
19617;SDS011;9956;51.006;13.670;2023-05-23T01:10:30;27.35;;;19.80;;
19617;SDS011;9956;51.006;13.670;2023-05-23T01:15:50;27.02;;;20.67;;
19617;SDS011;9956;51.006;13.670;2023-05-23T01:20:56;32.10;;;21.13;;
19617;SDS011;9956;51.006;13.670;2023-05-23T01:26:17;33.75;;;24.27;;
19617;SDS011;9956;51.006;13.670;2023-05-23T01:31:26;33.38;;;25.65;;
19617;SDS011;9956;51.006;13.670;2023-05-23T01:36:29;32.63;;;23.52;;
19617;SDS011;9956;51.006;13.670;2023-05-23T01:41:34;26.95;;;20.30;;
19617;SDS011;9956;51.006;13.670;2023-05-23T01:46:34;13.00;;;10.68;;
19617;SDS011;9956;51.006;13.670;2023-05-23T01:51:38;12.18;;;10.82;;
19617;SDS011;9956;51.006;13.670;2023-05-23T01:56:39;10.85;;;9.82;;
19617;SDS011;9956;51.006;13.670;2023-05-23T02:01:40;18.60;;;13.85;;
19617;SDS011;9956;51.006;13.670;2023-05-23T02:06:41;19.10;;;13.38;;
19617;SDS011;9956;51.006;13.670;2023-05-23T02:11:45;14.77;;;12.20;;
19617;SDS011;9956;51.006;13.670;2023-05-23T02:16:45;23.75;;;16.58;;
19617;SDS011;9956;51.006;13.670;2023-05-23T02:21:46;26.48;;;16.88;;
19617;SDS011;9956;51.006;13.670;2023-05-23T02:26:46;24.85;;;15.95;;
19617;SDS011;9956;51.006;13.670;2023-05-23T02:31:47;26.08;;;16.27;;
19617;SDS011;9956;51.006;13.670;2023-05-23T02:36:47;21.63;;;15.65;;
19617;SDS011;9956;51.006;13.670;2023-05-23T02:41:48;24.13;;;15.27;;
19617;SDS011;9956;51.006;13.670;2023-05-23T02:46:49;25.23;;;16.40;;
19617;SDS011;9956;51.006;13.670;2023-05-23T02:51:49;22.15;;;16.70;;
19617;SDS011;9956;51.006;13.670;2023-05-23T02:56:50;19.05;;;14.85;;
19617;SDS011;9956;51.006;13.670;2023-05-23T03:01:52;17.65;;;14.00;;
19617;SDS011;9956;51.006;13.670;2023-05-23T03:06:53;27.55;;;16.67;;
19617;SDS011;9956;51.006;13.670;2023-05-23T03:11:54;27.02;;;17.05;;
19617;SDS011;9956;51.006;13.670;2023-05-23T03:16:54;27.88;;;18.90;;
19617;SDS011;9956;51.006;13.670;2023-05-23T03:21:55;20.15;;;15.68;;
19617;SDS011;9956;51.006;13.670;2023-05-23T03:26:55;23.15;;;16.55;;
19617;SDS011;9956;51.006;13.670;2023-05-23T03:31:57;25.85;;;18.08;;
19617;SDS011;9956;51.006;13.670;2023-05-23T03:36:57;32.92;;;18.98;;
19617;SDS011;9956;51.006;13.670;2023-05-23T03:41:59;28.77;;;19.20;;
19617;SDS011;9956;51.006;13.670;2023-05-23T03:47:00;27.95;;;19.38;;
19617;SDS011;9956;51.006;13.670;2023-05-23T03:52:00;35.58;;;21.27;;
19617;SDS011;9956;51.006;13.670;2023-05-23T03:57:02;28.02;;;19.15;;
19617;SDS011;9956;51.006;13.670;2023-05-23T04:02:03;31.27;;;21.08;;
19617;SDS011;9956;51.006;13.670;2023-05-23T04:07:05;41.20;;;23.60;;
19617;SDS011;9956;51.006;13.670;2023-05-23T04:12:06;27.10;;;20.02;;
19617;SDS011;9956;51.006;13.670;2023-05-23T04:17:09;18.05;;;15.45;;
19617;SDS011;9956;51.006;13.670;2023-05-23T04:22:11;27.20;;;18.92;;
19617;SDS011;9956;51.006;13.670;2023-05-23T04:27:11;20.92;;;16.63;;
19617;SDS011;9956;51.006;13.670;2023-05-23T04:32:12;22.45;;;16.13;;
19617;SDS011;9956;51.006;13.670;2023-05-23T04:37:14;21.10;;;15.77;;
19617;SDS011;9956;51.006;13.670;2023-05-23T04:42:15;22.13;;;15.90;;
19617;SDS011;9956;51.006;13.670;2023-05-23T04:47:55;23.10;;;15.85;;
19617;SDS011;9956;51.006;13.670;2023-05-23T04:53:10;17.08;;;15.30;;
19617;SDS011;9956;51.006;13.670;2023-05-23T04:58:12;17.38;;;15.48;;
19617;SDS011;9956;51.006;13.670;2023-05-23T05:03:12;22.13;;;19.42;;
19617;SDS011;9956;51.006;13.670;2023-05-23T05:08:17;21.85;;;18.83;;
19617;SDS011;9956;51.006;13.670;2023-05-23T05:13:19;17.27;;;15.57;;
19617;SDS011;9956;51.006;13.670;2023-05-23T05:18:26;17.05;;;15.30;;
19617;SDS011;9956;51.006;13.670;2023-05-23T05:23:29;20.80;;;17.25;;
19617;SDS011;9956;51.006;13.670;2023-05-23T05:28:32;20.27;;;18.00;;
19617;SDS011;9956;51.006;13.670;2023-05-23T05:33:33;17.77;;;15.82;;
19617;SDS011;9956;51.006;13.670;2023-05-23T05:38:47;17.98;;;16.35;;
19617;SDS011;9956;51.006;13.670;2023-05-23T05:43:49;20.05;;;18.20;;
19617;SDS011;9956;51.006;13.670;2023-05-23T05:48:50;22.75;;;20.60;;
19617;SDS011;9956;51.006;13.670;2023-05-23T05:53:52;31.10;;;28.05;;
19617;SDS011;9956;51.006;13.670;2023-05-23T05:58:53;31.95;;;29.05;;
19617;SDS011;9956;51.006;13.670;2023-05-23T06:03:54;27.75;;;25.23;;
19617;SDS011;9956;51.006;13.670;2023-05-23T06:08:55;33.42;;;30.50;;
19617;SDS011;9956;51.006;13.670;2023-05-23T06:13:56;32.55;;;29.75;;
19617;SDS011;9956;51.006;13.670;2023-05-23T06:18:57;32.50;;;29.70;;
19617;SDS011;9956;51.006;13.670;2023-05-23T06:24:01;30.58;;;27.92;;
19617;SDS011;9956;51.006;13.670;2023-05-23T06:29:01;29.58;;;27.08;;
19617;SDS011;9956;51.006;13.670;2023-05-23T06:34:02;28.42;;;26.05;;
19617;SDS011;9956;51.006;13.670;2023-05-23T06:39:03;25.98;;;23.77;;
19617;SDS011;9956;51.006;13.670;2023-05-23T06:44:03;28.08;;;25.48;;
19617;SDS011;9956;51.006;13.670;2023-05-23T06:49:04;24.85;;;22.85;;
19617;SDS011;9956;51.006;13.670;2023-05-23T06:54:05;23.60;;;21.52;;
19617;SDS011;9956;51.006;13.670;2023-05-23T06:59:06;22.63;;;20.85;;
19617;SDS011;9956;51.006;13.670;2023-05-23T07:04:07;20.80;;;18.90;;
19617;SDS011;9956;51.006;13.670;2023-05-23T07:09:08;20.23;;;18.67;;
19617;SDS011;9956;51.006;13.670;2023-05-23T07:14:11;16.67;;;15.02;;
19617;SDS011;9956;51.006;13.670;2023-05-23T07:19:17;16.08;;;14.52;;
19617;SDS011;9956;51.006;13.670;2023-05-23T07:24:21;14.88;;;13.52;;
19617;SDS011;9956;51.006;13.670;2023-05-23T07:29:22;15.30;;;13.80;;
19617;SDS011;9956;51.006;13.670;2023-05-23T07:34:25;13.90;;;12.68;;
19617;SDS011;9956;51.006;13.670;2023-05-23T07:39:30;14.65;;;13.25;;
19617;SDS011;9956;51.006;13.670;2023-05-23T07:44:33;13.95;;;12.68;;
19617;SDS011;9956;51.006;13.670;2023-05-23T07:49:34;13.10;;;11.88;;
19617;SDS011;9956;51.006;13.670;2023-05-23T07:54:35;12.98;;;11.80;;
19617;SDS011;9956;51.006;13.670;2023-05-23T07:59:37;13.50;;;12.07;;
19617;SDS011;9956;51.006;13.670;2023-05-23T08:04:38;13.55;;;12.20;;
19617;SDS011;9956;51.006;13.670;2023-05-23T08:09:39;10.65;;;9.75;;
19617;SDS011;9956;51.006;13.670;2023-05-23T08:14:41;11.70;;;10.40;;
19617;SDS011;9956;51.006;13.670;2023-05-23T08:20:02;12.00;;;10.90;;
19617;SDS011;9956;51.006;13.670;2023-05-23T08:25:04;12.40;;;11.25;;
19617;SDS011;9956;51.006;13.670;2023-05-23T08:30:07;14.93;;;13.43;;
19617;SDS011;9956;51.006;13.670;2023-05-23T08:35:09;13.52;;;12.35;;
19617;SDS011;9956;51.006;13.670;2023-05-23T08:40:12;14.98;;;13.77;;
19617;SDS011;9956;51.006;13.670;2023-05-23T08:45:18;18.75;;;17.02;;
19617;SDS011;9956;51.006;13.670;2023-05-23T08:50:20;19.83;;;18.02;;
19617;SDS011;9956;51.006;13.670;2023-05-23T08:55:28;21.38;;;19.45;;
19617;SDS011;9956;51.006;13.670;2023-05-23T09:00:29;20.95;;;19.05;;
19617;SDS011;9956;51.006;13.670;2023-05-23T09:05:31;22.02;;;19.95;;
19617;SDS011;9956;51.006;13.670;2023-05-23T09:10:32;23.38;;;21.17;;
19617;SDS011;9956;51.006;13.670;2023-05-23T09:15:36;25.25;;;22.80;;
19617;SDS011;9956;51.006;13.670;2023-05-23T09:20:39;25.77;;;23.30;;
19617;SDS011;9956;51.006;13.670;2023-05-23T09:25:46;25.88;;;23.55;;
19617;SDS011;9956;51.006;13.670;2023-05-23T09:30:56;30.33;;;27.33;;
19617;SDS011;9956;51.006;13.670;2023-05-23T09:35:57;31.75;;;28.48;;
19617;SDS011;9956;51.006;13.670;2023-05-23T09:40:59;34.75;;;31.05;;
19617;SDS011;9956;51.006;13.670;2023-05-23T09:46:05;36.20;;;32.30;;
19617;SDS011;9956;51.006;13.670;2023-05-23T09:51:07;34.92;;;30.83;;
19617;SDS011;9956;51.006;13.670;2023-05-23T09:56:09;27.23;;;24.38;;
19617;SDS011;9956;51.006;13.670;2023-05-23T10:01:14;20.95;;;18.85;;
19617;SDS011;9956;51.006;13.670;2023-05-23T10:06:25;19.48;;;17.58;;
19617;SDS011;9956;51.006;13.670;2023-05-23T10:21:41;12.65;;;11.40;;
19617;SDS011;9956;51.006;13.670;2023-05-23T10:26:47;13.38;;;11.98;;
19617;SDS011;9956;51.006;13.670;2023-05-23T10:31:48;15.75;;;14.20;;
19617;SDS011;9956;51.006;13.670;2023-05-23T10:37:05;18.40;;;16.30;;
19617;SDS011;9956;51.006;13.670;2023-05-23T10:47:59;15.82;;;13.57;;
19617;SDS011;9956;51.006;13.670;2023-05-23T10:53:00;12.85;;;11.65;;
19617;SDS011;9956;51.006;13.670;2023-05-23T11:03:15;12.15;;;10.93;;
19617;SDS011;9956;51.006;13.670;2023-05-23T11:08:16;12.75;;;10.30;;
19617;SDS011;9956;51.006;13.670;2023-05-23T11:13:20;11.75;;;9.93;;
19617;SDS011;9956;51.006;13.670;2023-05-23T11:18:22;10.88;;;9.88;;
19617;SDS011;9956;51.006;13.670;2023-05-23T11:23:23;13.00;;;9.50;;
19617;SDS011;9956;51.006;13.670;2023-05-23T11:28:54;10.65;;;9.57;;
19617;SDS011;9956;51.006;13.670;2023-05-23T11:33:55;11.57;;;10.50;;
19617;SDS011;9956;51.006;13.670;2023-05-23T11:38:55;11.50;;;10.38;;
19617;SDS011;9956;51.006;13.670;2023-05-23T11:43:56;11.68;;;9.40;;
19617;SDS011;9956;51.006;13.670;2023-05-23T11:48:58;11.10;;;9.68;;
19617;SDS011;9956;51.006;13.670;2023-05-23T11:54:02;11.40;;;10.27;;
19617;SDS011;9956;51.006;13.670;2023-05-23T11:59:02;12.63;;;11.43;;
19617;SDS011;9956;51.006;13.670;2023-05-23T12:04:08;13.18;;;11.27;;
19617;SDS011;9956;51.006;13.670;2023-05-23T12:09:10;12.82;;;11.63;;
19617;SDS011;9956;51.006;13.670;2023-05-23T12:14:15;12.18;;;11.18;;
19617;SDS011;9956;51.006;13.670;2023-05-23T12:19:16;11.68;;;10.48;;
19617;SDS011;9956;51.006;13.670;2023-05-23T12:24:20;12.52;;;11.32;;
19617;SDS011;9956;51.006;13.670;2023-05-23T12:29:27;11.77;;;10.55;;
19617;SDS011;9956;51.006;13.670;2023-05-23T12:34:28;11.18;;;9.82;;
19617;SDS011;9956;51.006;13.670;2023-05-23T12:39:29;11.57;;;9.80;;
19617;SDS011;9956;51.006;13.670;2023-05-23T12:44:30;12.65;;;11.32;;
19617;SDS011;9956;51.006;13.670;2023-05-23T12:49:31;11.48;;;10.23;;
19617;SDS011;9956;51.006;13.670;2023-05-23T12:54:31;12.45;;;10.02;;
19617;SDS011;9956;51.006;13.670;2023-05-23T12:59:32;11.15;;;10.15;;
19617;SDS011;9956;51.006;13.670;2023-05-23T13:04:32;12.10;;;11.00;;
19617;SDS011;9956;51.006;13.670;2023-05-23T13:09:33;10.15;;;9.15;;
19617;SDS011;9956;51.006;13.670;2023-05-23T13:14:33;10.13;;;9.32;;
19617;SDS011;9956;51.006;13.670;2023-05-23T13:19:34;9.65;;;8.73;;
19617;SDS011;9956;51.006;13.670;2023-05-23T13:24:38;9.45;;;8.55;;
19617;SDS011;9956;51.006;13.670;2023-05-23T13:29:39;8.73;;;8.02;;
19617;SDS011;9956;51.006;13.670;2023-05-23T13:34:40;9.38;;;8.48;;
19617;SDS011;9956;51.006;13.670;2023-05-23T13:39:41;10.27;;;9.30;;
19617;SDS011;9956;51.006;13.670;2023-05-23T13:44:41;13.48;;;12.27;;
19617;SDS011;9956;51.006;13.670;2023-05-23T13:49:42;14.27;;;12.85;;
19617;SDS011;9956;51.006;13.670;2023-05-23T13:54:42;13.90;;;12.60;;
19617;SDS011;9956;51.006;13.670;2023-05-23T13:59:43;11.45;;;10.35;;
19617;SDS011;9956;51.006;13.670;2023-05-23T14:04:59;12.35;;;11.15;;
19617;SDS011;9956;51.006;13.670;2023-05-23T14:10:00;11.13;;;10.02;;
19617;SDS011;9956;51.006;13.670;2023-05-23T14:15:01;11.80;;;10.57;;
19617;SDS011;9956;51.006;13.670;2023-05-23T14:20:02;9.10;;;8.20;;
19617;SDS011;9956;51.006;13.670;2023-05-23T14:25:03;7.85;;;7.05;;
19617;SDS011;9956;51.006;13.670;2023-05-23T14:30:03;7.75;;;6.78;;
19617;SDS011;9956;51.006;13.670;2023-05-23T14:35:04;5.50;;;4.82;;
19617;SDS011;9956;51.006;13.670;2023-05-23T14:40:06;4.93;;;4.53;;
19617;SDS011;9956;51.006;13.670;2023-05-23T14:45:09;5.68;;;5.18;;
19617;SDS011;9956;51.006;13.670;2023-05-23T14:50:10;6.68;;;5.57;;
19617;SDS011;9956;51.006;13.670;2023-05-23T14:55:10;6.57;;;5.97;;
19617;SDS011;9956;51.006;13.670;2023-05-23T15:00:11;7.68;;;7.05;;
19617;SDS011;9956;51.006;13.670;2023-05-23T15:05:12;8.20;;;7.20;;
19617;SDS011;9956;51.006;13.670;2023-05-23T15:10:14;8.20;;;7.45;;
19617;SDS011;9956;51.006;13.670;2023-05-23T15:15:15;8.07;;;7.38;;
19617;SDS011;9956;51.006;13.670;2023-05-23T15:20:21;8.25;;;7.55;;
19617;SDS011;9956;51.006;13.670;2023-05-23T15:25:22;10.68;;;8.48;;
19617;SDS011;9956;51.006;13.670;2023-05-23T15:30:26;10.80;;;9.18;;
19617;SDS011;9956;51.006;13.670;2023-05-23T15:35:26;11.43;;;10.00;;
19617;SDS011;9956;51.006;13.670;2023-05-23T15:40:27;9.18;;;8.38;;
19617;SDS011;9956;51.006;13.670;2023-05-23T15:45:27;9.15;;;8.25;;
19617;SDS011;9956;51.006;13.670;2023-05-23T15:50:28;7.85;;;6.97;;
19617;SDS011;9956;51.006;13.670;2023-05-23T15:55:28;6.70;;;6.00;;
19617;SDS011;9956;51.006;13.670;2023-05-23T16:00:29;7.05;;;5.72;;
19617;SDS011;9956;51.006;13.670;2023-05-23T16:05:29;6.95;;;6.07;;
19617;SDS011;9956;51.006;13.670;2023-05-23T16:10:29;5.78;;;5.28;;
19617;SDS011;9956;51.006;13.670;2023-05-23T16:15:30;5.72;;;5.25;;
19617;SDS011;9956;51.006;13.670;2023-05-23T16:20:30;7.35;;;6.75;;
19617;SDS011;9956;51.006;13.670;2023-05-23T16:25:33;8.95;;;8.05;;
19617;SDS011;9956;51.006;13.670;2023-05-23T16:37:01;9.02;;;8.07;;
19617;SDS011;9956;51.006;13.670;2023-05-23T16:42:01;7.80;;;7.10;;
19617;SDS011;9956;51.006;13.670;2023-05-23T16:47:01;10.38;;;7.88;;
19617;SDS011;9956;51.006;13.670;2023-05-23T16:52:02;6.60;;;6.00;;
19617;SDS011;9956;51.006;13.670;2023-05-23T16:57:02;7.13;;;6.43;;
19617;SDS011;9956;51.006;13.670;2023-05-23T17:02:04;7.85;;;6.43;;
19617;SDS011;9956;51.006;13.670;2023-05-23T17:07:04;6.97;;;5.32;;
19617;SDS011;9956;51.006;13.670;2023-05-23T17:12:07;6.43;;;5.15;;
19617;SDS011;9956;51.006;13.670;2023-05-23T17:17:08;6.95;;;6.25;;
19617;SDS011;9956;51.006;13.670;2023-05-23T17:22:08;6.97;;;5.97;;
19617;SDS011;9956;51.006;13.670;2023-05-23T17:27:09;6.38;;;5.78;;
19617;SDS011;9956;51.006;13.670;2023-05-23T17:32:09;6.38;;;5.80;;
19617;SDS011;9956;51.006;13.670;2023-05-23T17:37:10;6.60;;;6.00;;
19617;SDS011;9956;51.006;13.670;2023-05-23T17:42:10;6.68;;;5.95;;
19617;SDS011;9956;51.006;13.670;2023-05-23T17:47:11;6.22;;;4.65;;
19617;SDS011;9956;51.006;13.670;2023-05-23T17:52:12;6.22;;;5.63;;
19617;SDS011;9956;51.006;13.670;2023-05-23T17:57:13;6.68;;;5.47;;
19617;SDS011;9956;51.006;13.670;2023-05-23T18:02:15;5.13;;;4.63;;
19617;SDS011;9956;51.006;13.670;2023-05-23T18:07:16;6.05;;;5.10;;
19617;SDS011;9956;51.006;13.670;2023-05-23T18:12:17;7.15;;;5.22;;
19617;SDS011;9956;51.006;13.670;2023-05-23T18:17:18;9.68;;;7.25;;
19617;SDS011;9956;51.006;13.670;2023-05-23T18:22:18;14.57;;;8.98;;
19617;SDS011;9956;51.006;13.670;2023-05-23T18:27:20;12.60;;;8.80;;
19617;SDS011;9956;51.006;13.670;2023-05-23T18:32:20;13.75;;;10.27;;
19617;SDS011;9956;51.006;13.670;2023-05-23T18:37:21;15.93;;;11.85;;
19617;SDS011;9956;51.006;13.670;2023-05-23T18:42:22;23.77;;;14.05;;
19617;SDS011;9956;51.006;13.670;2023-05-23T18:47:22;23.38;;;14.30;;
19617;SDS011;9956;51.006;13.670;2023-05-23T18:52:23;29.27;;;18.23;;
19617;SDS011;9956;51.006;13.670;2023-05-23T18:57:23;51.60;;;22.60;;
19617;SDS011;9956;51.006;13.670;2023-05-23T19:02:24;46.53;;;25.88;;
19617;SDS011;9956;51.006;13.670;2023-05-23T19:07:25;61.83;;;31.15;;
19617;SDS011;9956;51.006;13.670;2023-05-23T19:12:26;66.63;;;32.75;;
19617;SDS011;9956;51.006;13.670;2023-05-23T19:17:26;60.95;;;33.17;;
19617;SDS011;9956;51.006;13.670;2023-05-23T19:22:39;59.40;;;33.33;;
19617;SDS011;9956;51.006;13.670;2023-05-23T19:27:39;77.85;;;35.13;;
19617;SDS011;9956;51.006;13.670;2023-05-23T19:32:40;57.90;;;30.90;;
19617;SDS011;9956;51.006;13.670;2023-05-23T19:37:40;52.90;;;30.98;;
19617;SDS011;9956;51.006;13.670;2023-05-23T19:42:41;71.32;;;30.67;;
19617;SDS011;9956;51.006;13.670;2023-05-23T19:47:41;50.28;;;28.15;;
19617;SDS011;9956;51.006;13.670;2023-05-23T19:52:42;61.05;;;31.55;;
19617;SDS011;9956;51.006;13.670;2023-05-23T19:57:42;60.45;;;32.72;;
19617;SDS011;9956;51.006;13.670;2023-05-23T20:02:44;45.72;;;27.70;;
19617;SDS011;9956;51.006;13.670;2023-05-23T20:07:46;60.75;;;31.55;;
19617;SDS011;9956;51.006;13.670;2023-05-23T20:12:47;53.83;;;29.63;;
19617;SDS011;9956;51.006;13.670;2023-05-23T20:17:47;50.70;;;27.27;;
19617;SDS011;9956;51.006;13.670;2023-05-23T20:22:48;53.42;;;26.77;;
19617;SDS011;9956;51.006;13.670;2023-05-23T20:27:48;68.47;;;26.90;;
19617;SDS011;9956;51.006;13.670;2023-05-23T20:32:49;39.88;;;24.20;;
19617;SDS011;9956;51.006;13.670;2023-05-23T20:37:52;51.08;;;25.33;;
19617;SDS011;9956;51.006;13.670;2023-05-23T20:42:52;52.10;;;25.67;;
19617;SDS011;9956;51.006;13.670;2023-05-23T20:47:53;64.45;;;27.77;;
19617;SDS011;9956;51.006;13.670;2023-05-23T20:52:54;45.55;;;24.52;;
19617;SDS011;9956;51.006;13.670;2023-05-23T20:57:54;54.88;;;25.25;;
19617;SDS011;9956;51.006;13.670;2023-05-23T21:02:55;43.00;;;24.23;;
19617;SDS011;9956;51.006;13.670;2023-05-23T21:07:55;52.22;;;24.40;;
19617;SDS011;9956;51.006;13.670;2023-05-23T21:12:56;69.63;;;26.65;;
19617;SDS011;9956;51.006;13.670;2023-05-23T21:17:57;57.38;;;23.88;;
19617;SDS011;9956;51.006;13.670;2023-05-23T21:22:57;47.95;;;22.83;;
19617;SDS011;9956;51.006;13.670;2023-05-23T21:27:58;41.75;;;23.20;;
19617;SDS011;9956;51.006;13.670;2023-05-23T21:32:58;48.22;;;22.52;;
19617;SDS011;9956;51.006;13.670;2023-05-23T21:37:59;39.72;;;20.75;;
19617;SDS011;9956;51.006;13.670;2023-05-23T21:42:59;43.38;;;21.80;;
19617;SDS011;9956;51.006;13.670;2023-05-23T21:48:00;49.88;;;21.60;;
19617;SDS011;9956;51.006;13.670;2023-05-23T21:53:00;53.70;;;22.88;;
19617;SDS011;9956;51.006;13.670;2023-05-23T21:58:01;39.38;;;21.58;;
19617;SDS011;9956;51.006;13.670;2023-05-23T22:03:01;39.53;;;22.35;;
19617;SDS011;9956;51.006;13.670;2023-05-23T22:08:02;61.80;;;26.42;;
19617;SDS011;9956;51.006;13.670;2023-05-23T22:13:02;47.50;;;22.92;;
19617;SDS011;9956;51.006;13.670;2023-05-23T22:18:03;55.95;;;23.90;;
19617;SDS011;9956;51.006;13.670;2023-05-23T22:23:04;44.53;;;23.27;;
19617;SDS011;9956;51.006;13.670;2023-05-23T22:28:06;38.35;;;21.17;;
19617;SDS011;9956;51.006;13.670;2023-05-23T22:33:07;46.85;;;23.25;;
19617;SDS011;9956;51.006;13.670;2023-05-23T22:38:11;58.30;;;24.63;;
19617;SDS011;9956;51.006;13.670;2023-05-23T22:43:12;44.97;;;25.42;;
19617;SDS011;9956;51.006;13.670;2023-05-23T22:48:12;35.85;;;21.23;;
19617;SDS011;9956;51.006;13.670;2023-05-23T22:53:13;35.72;;;21.10;;
19617;SDS011;9956;51.006;13.670;2023-05-23T22:58:15;52.58;;;22.67;;
19617;SDS011;9956;51.006;13.670;2023-05-23T23:03:16;37.55;;;20.27;;
19617;SDS011;9956;51.006;13.670;2023-05-23T23:08:16;43.20;;;18.50;;
19617;SDS011;9956;51.006;13.670;2023-05-23T23:13:18;33.35;;;15.10;;
19617;SDS011;9956;51.006;13.670;2023-05-23T23:18:18;30.77;;;14.38;;
19617;SDS011;9956;51.006;13.670;2023-05-23T23:23:19;35.67;;;15.20;;
19617;SDS011;9956;51.006;13.670;2023-05-23T23:28:19;35.35;;;15.15;;
19617;SDS011;9956;51.006;13.670;2023-05-23T23:33:20;28.40;;;13.50;;
19617;SDS011;9956;51.006;13.670;2023-05-23T23:38:20;35.20;;;14.75;;
19617;SDS011;9956;51.006;13.670;2023-05-23T23:43:21;24.30;;;12.13;;
19617;SDS011;9956;51.006;13.670;2023-05-23T23:48:21;34.33;;;13.25;;
19617;SDS011;9956;51.006;13.670;2023-05-23T23:53:22;23.85;;;10.65;;
19617;SDS011;9956;51.006;13.670;2023-05-23T23:58:22;32.95;;;10.80;;
